<?xml version="1.0" encoding="UTF-8" standalone="no" ?>
<gpx xmlns="http://www.topografix.com/GPX/1/1" xmlns:xsi="http://www.w3.org/2001/XMLSchema-instance" xsi:schemaLocation="http://www.topografix.com/GPX/1/1 http://www.topografix.com/GPX/1/1/gpx.xsd" version="1.1" creator="VisuGPX - https://www.visugpx.com">
  <metadata>
    <name>La Séguinière</name>
  </metadata>
  <trk>
    <name><![CDATA[14143116-Enregistrement du 18/01/2022]]></name>
    <trkseg>
      <trkpt lat="47.06256" lon="-0.93946">
        <ele>75</ele>
        <time>2022-01-19T15:23:50Z</time>
      </trkpt>
      <trkpt lat="47.06243" lon="-0.93963">
        <ele>74</ele>
        <time>2022-01-19T15:24:13Z</time>
      </trkpt>
      <trkpt lat="47.06229" lon="-0.94012">
        <ele>73</ele>
        <time>2022-01-19T15:25:02Z</time>
      </trkpt>
      <trkpt lat="47.06213" lon="-0.9402">
        <ele>72</ele>
        <time>2022-01-19T15:25:24Z</time>
      </trkpt>
      <trkpt lat="47.06185" lon="-0.94023">
        <ele>70</ele>
        <time>2022-01-19T15:26:02Z</time>
      </trkpt>
      <trkpt lat="47.06175" lon="-0.941">
        <ele>70</ele>
        <time>2022-01-19T15:27:13Z</time>
      </trkpt>
      <trkpt lat="47.06164" lon="-0.94111">
        <ele>69</ele>
        <time>2022-01-19T15:27:31Z</time>
      </trkpt>
      <trkpt lat="47.06145" lon="-0.94115">
        <ele>68</ele>
        <time>2022-01-19T15:27:56Z</time>
      </trkpt>
      <trkpt lat="47.06132" lon="-0.94135">
        <ele>67</ele>
        <time>2022-01-19T15:28:21Z</time>
      </trkpt>
      <trkpt lat="47.06114" lon="-0.94185">
        <ele>66</ele>
        <time>2022-01-19T15:29:13Z</time>
      </trkpt>
      <trkpt lat="47.06106" lon="-0.9423">
        <ele>67</ele>
        <time>2022-01-19T15:29:55Z</time>
      </trkpt>
      <trkpt lat="47.06101" lon="-0.94336">
        <ele>66</ele>
        <time>2022-01-19T15:31:32Z</time>
      </trkpt>
      <trkpt lat="47.06115" lon="-0.94456">
        <ele>65</ele>
        <time>2022-01-19T15:33:22Z</time>
      </trkpt>
      <trkpt lat="47.06107" lon="-0.94521">
        <ele>64</ele>
        <time>2022-01-19T15:34:22Z</time>
      </trkpt>
      <trkpt lat="47.06111" lon="-0.9455">
        <ele>64</ele>
        <time>2022-01-19T15:34:49Z</time>
      </trkpt>
      <trkpt lat="47.06142" lon="-0.94569">
        <ele>64</ele>
        <time>2022-01-19T15:35:34Z</time>
      </trkpt>
      <trkpt lat="47.06176" lon="-0.94577">
        <ele>63</ele>
        <time>2022-01-19T15:36:20Z</time>
      </trkpt>
      <trkpt lat="47.06194" lon="-0.94587">
        <ele>64</ele>
        <time>2022-01-19T15:36:46Z</time>
      </trkpt>
      <trkpt lat="47.06239" lon="-0.94631">
        <ele>64</ele>
        <time>2022-01-19T15:37:58Z</time>
      </trkpt>
      <trkpt lat="47.06268" lon="-0.94671">
        <ele>64</ele>
        <time>2022-01-19T15:38:51Z</time>
      </trkpt>
      <trkpt lat="47.06285" lon="-0.94717">
        <ele>66</ele>
        <time>2022-01-19T15:39:39Z</time>
      </trkpt>
      <trkpt lat="47.06291" lon="-0.94766">
        <ele>65</ele>
        <time>2022-01-19T15:40:24Z</time>
      </trkpt>
      <trkpt lat="47.06266" lon="-0.94848">
        <ele>61</ele>
        <time>2022-01-19T15:41:45Z</time>
      </trkpt>
      <trkpt lat="47.06249" lon="-0.94884">
        <ele>61</ele>
        <time>2022-01-19T15:42:25Z</time>
      </trkpt>
      <trkpt lat="47.06223" lon="-0.94907">
        <ele>62</ele>
        <time>2022-01-19T15:43:06Z</time>
      </trkpt>
      <trkpt lat="47.06179" lon="-0.94929">
        <ele>62</ele>
        <time>2022-01-19T15:44:08Z</time>
      </trkpt>
      <trkpt lat="47.06161" lon="-0.9498">
        <ele>62</ele>
        <time>2022-01-19T15:45:00Z</time>
      </trkpt>
      <trkpt lat="47.06156" lon="-0.95039">
        <ele>62</ele>
        <time>2022-01-19T15:45:54Z</time>
      </trkpt>
      <trkpt lat="47.06148" lon="-0.95073">
        <ele>62</ele>
        <time>2022-01-19T15:46:27Z</time>
      </trkpt>
      <trkpt lat="47.06149" lon="-0.95096">
        <ele>62</ele>
        <time>2022-01-19T15:46:48Z</time>
      </trkpt>
      <trkpt lat="47.06134" lon="-0.95151">
        <ele>63</ele>
        <time>2022-01-19T15:47:42Z</time>
      </trkpt>
      <trkpt lat="47.0616" lon="-0.95214">
        <ele>62</ele>
        <time>2022-01-19T15:48:49Z</time>
      </trkpt>
      <trkpt lat="47.06184" lon="-0.95255">
        <ele>64</ele>
        <time>2022-01-19T15:49:38Z</time>
      </trkpt>
      <trkpt lat="47.06187" lon="-0.95274">
        <ele>65</ele>
        <time>2022-01-19T15:49:55Z</time>
      </trkpt>
      <trkpt lat="47.06147" lon="-0.95395">
        <ele>64</ele>
        <time>2022-01-19T15:51:58Z</time>
      </trkpt>
      <trkpt lat="47.06131" lon="-0.95502">
        <ele>67</ele>
        <time>2022-01-19T15:53:37Z</time>
      </trkpt>
      <trkpt lat="47.06088" lon="-0.95685">
        <ele>66</ele>
        <time>2022-01-19T15:56:33Z</time>
      </trkpt>
      <trkpt lat="47.06084" lon="-0.95718">
        <ele>66</ele>
        <time>2022-01-19T15:57:04Z</time>
      </trkpt>
      <trkpt lat="47.06087" lon="-0.95759">
        <ele>67</ele>
        <time>2022-01-19T15:57:41Z</time>
      </trkpt>
      <trkpt lat="47.06074" lon="-0.95827">
        <ele>66</ele>
        <time>2022-01-19T15:58:45Z</time>
      </trkpt>
      <trkpt lat="47.06075" lon="-0.95947">
        <ele>66</ele>
        <time>2022-01-19T16:00:34Z</time>
      </trkpt>
      <trkpt lat="47.06089" lon="-0.96007">
        <ele>64</ele>
        <time>2022-01-19T16:01:32Z</time>
      </trkpt>
      <trkpt lat="47.06138" lon="-0.96073">
        <ele>65</ele>
        <time>2022-01-19T16:03:01Z</time>
      </trkpt>
      <trkpt lat="47.06201" lon="-0.96119">
        <ele>67</ele>
        <time>2022-01-19T16:04:35Z</time>
      </trkpt>
      <trkpt lat="47.06244" lon="-0.96157">
        <ele>66</ele>
        <time>2022-01-19T16:05:42Z</time>
      </trkpt>
      <trkpt lat="47.06263" lon="-0.96168">
        <ele>66</ele>
        <time>2022-01-19T16:06:09Z</time>
      </trkpt>
      <trkpt lat="47.06291" lon="-0.96173">
        <ele>68</ele>
        <time>2022-01-19T16:06:47Z</time>
      </trkpt>
      <trkpt lat="47.06341" lon="-0.96201">
        <ele>68</ele>
        <time>2022-01-19T16:07:58Z</time>
      </trkpt>
      <trkpt lat="47.0637" lon="-0.96231">
        <ele>67</ele>
        <time>2022-01-19T16:08:45Z</time>
      </trkpt>
      <trkpt lat="47.06413" lon="-0.96289">
        <ele>65</ele>
        <time>2022-01-19T16:10:03Z</time>
      </trkpt>
      <trkpt lat="47.06433" lon="-0.96302">
        <ele>67</ele>
        <time>2022-01-19T16:10:33Z</time>
      </trkpt>
      <trkpt lat="47.06443" lon="-0.96294">
        <ele>68</ele>
        <time>2022-01-19T16:10:48Z</time>
      </trkpt>
      <trkpt lat="47.06458" lon="-0.96263">
        <ele>69</ele>
        <time>2022-01-19T16:11:22Z</time>
      </trkpt>
      <trkpt lat="47.06503" lon="-0.96198">
        <ele>73</ele>
        <time>2022-01-19T16:12:47Z</time>
      </trkpt>
      <trkpt lat="47.06544" lon="-0.96171">
        <ele>72</ele>
        <time>2022-01-19T16:13:46Z</time>
      </trkpt>
      <trkpt lat="47.06563" lon="-0.96169">
        <ele>71</ele>
        <time>2022-01-19T16:14:12Z</time>
      </trkpt>
      <trkpt lat="47.06588" lon="-0.96159">
        <ele>70</ele>
        <time>2022-01-19T16:14:46Z</time>
      </trkpt>
      <trkpt lat="47.06613" lon="-0.96163">
        <ele>70</ele>
        <time>2022-01-19T16:15:20Z</time>
      </trkpt>
      <trkpt lat="47.06636" lon="-0.96157">
        <ele>71</ele>
        <time>2022-01-19T16:15:51Z</time>
      </trkpt>
      <trkpt lat="47.06659" lon="-0.96126">
        <ele>71</ele>
        <time>2022-01-19T16:16:33Z</time>
      </trkpt>
      <trkpt lat="47.06696" lon="-0.96103">
        <ele>71</ele>
        <time>2022-01-19T16:17:26Z</time>
      </trkpt>
      <trkpt lat="47.06724" lon="-0.96075">
        <ele>70</ele>
        <time>2022-01-19T16:18:12Z</time>
      </trkpt>
      <trkpt lat="47.06736" lon="-0.96046">
        <ele>72</ele>
        <time>2022-01-19T16:18:43Z</time>
      </trkpt>
      <trkpt lat="47.06765" lon="-0.96017">
        <ele>73</ele>
        <time>2022-01-19T16:19:29Z</time>
      </trkpt>
      <trkpt lat="47.06789" lon="-0.96009">
        <ele>72</ele>
        <time>2022-01-19T16:20:02Z</time>
      </trkpt>
      <trkpt lat="47.06803" lon="-0.95999">
        <ele>72</ele>
        <time>2022-01-19T16:20:23Z</time>
      </trkpt>
      <trkpt lat="47.06809" lon="-0.95971">
        <ele>73</ele>
        <time>2022-01-19T16:20:50Z</time>
      </trkpt>
      <trkpt lat="47.06826" lon="-0.95949">
        <ele>73</ele>
        <time>2022-01-19T16:21:20Z</time>
      </trkpt>
      <trkpt lat="47.06864" lon="-0.95914">
        <ele>73</ele>
        <time>2022-01-19T16:22:20Z</time>
      </trkpt>
      <trkpt lat="47.06896" lon="-0.95899">
        <ele>73</ele>
        <time>2022-01-19T16:23:05Z</time>
      </trkpt>
      <trkpt lat="47.06928" lon="-0.95858">
        <ele>74</ele>
        <time>2022-01-19T16:24:01Z</time>
      </trkpt>
      <trkpt lat="47.0693" lon="-0.95832">
        <ele>74</ele>
        <time>2022-01-19T16:24:25Z</time>
      </trkpt>
      <trkpt lat="47.06926" lon="-0.95807">
        <ele>76</ele>
        <time>2022-01-19T16:24:48Z</time>
      </trkpt>
      <trkpt lat="47.0689" lon="-0.95738">
        <ele>82</ele>
        <time>2022-01-19T16:26:07Z</time>
      </trkpt>
      <trkpt lat="47.06883" lon="-0.95716">
        <ele>84</ele>
        <time>2022-01-19T16:26:29Z</time>
      </trkpt>
      <trkpt lat="47.0689" lon="-0.95659">
        <ele>87</ele>
        <time>2022-01-19T16:27:22Z</time>
      </trkpt>
      <trkpt lat="47.06916" lon="-0.95611">
        <ele>89</ele>
        <time>2022-01-19T16:28:18Z</time>
      </trkpt>
      <trkpt lat="47.06917" lon="-0.95578">
        <ele>91</ele>
        <time>2022-01-19T16:28:48Z</time>
      </trkpt>
      <trkpt lat="47.0691" lon="-0.95491">
        <ele>94</ele>
        <time>2022-01-19T16:30:08Z</time>
      </trkpt>
      <trkpt lat="47.06887" lon="-0.9538">
        <ele>96</ele>
        <time>2022-01-19T16:31:53Z</time>
      </trkpt>
      <trkpt lat="47.06912" lon="-0.95299">
        <ele>98</ele>
        <time>2022-01-19T16:33:14Z</time>
      </trkpt>
      <trkpt lat="47.06919" lon="-0.95254">
        <ele>99</ele>
        <time>2022-01-19T16:33:56Z</time>
      </trkpt>
      <trkpt lat="47.06935" lon="-0.95214">
        <ele>100</ele>
        <time>2022-01-19T16:34:38Z</time>
      </trkpt>
      <trkpt lat="47.06952" lon="-0.95152">
        <ele>102</ele>
        <time>2022-01-19T16:35:39Z</time>
      </trkpt>
      <trkpt lat="47.06952" lon="-0.95134">
        <ele>102</ele>
        <time>2022-01-19T16:35:55Z</time>
      </trkpt>
      <trkpt lat="47.06929" lon="-0.95114">
        <ele>103</ele>
        <time>2022-01-19T16:36:31Z</time>
      </trkpt>
      <trkpt lat="47.06896" lon="-0.95099">
        <ele>104</ele>
        <time>2022-01-19T16:37:17Z</time>
      </trkpt>
      <trkpt lat="47.06815" lon="-0.95016">
        <ele>105</ele>
        <time>2022-01-19T16:39:29Z</time>
      </trkpt>
      <trkpt lat="47.06705" lon="-0.94929">
        <ele>105</ele>
        <time>2022-01-19T16:42:15Z</time>
      </trkpt>
      <trkpt lat="47.06689" lon="-0.94926">
        <ele>105</ele>
        <time>2022-01-19T16:42:37Z</time>
      </trkpt>
      <trkpt lat="47.06676" lon="-0.94914">
        <ele>104</ele>
        <time>2022-01-19T16:42:57Z</time>
      </trkpt>
      <trkpt lat="47.06631" lon="-0.94908">
        <ele>104</ele>
        <time>2022-01-19T16:43:58Z</time>
      </trkpt>
      <trkpt lat="47.06573" lon="-0.94887">
        <ele>105</ele>
        <time>2022-01-19T16:45:17Z</time>
      </trkpt>
      <trkpt lat="47.06564" lon="-0.94893">
        <ele>104</ele>
        <time>2022-01-19T16:45:31Z</time>
      </trkpt>
      <trkpt lat="47.0656" lon="-0.94901">
        <ele>103</ele>
        <time>2022-01-19T16:45:40Z</time>
      </trkpt>
      <trkpt lat="47.06561" lon="-0.94894">
        <ele>104</ele>
        <time>2022-01-19T16:45:46Z</time>
      </trkpt>
      <trkpt lat="47.06569" lon="-0.94885">
        <ele>105</ele>
        <time>2022-01-19T16:46:00Z</time>
      </trkpt>
      <trkpt lat="47.06559" lon="-0.94882">
        <ele>104</ele>
        <time>2022-01-19T16:46:13Z</time>
      </trkpt>
      <trkpt lat="47.06551" lon="-0.94889">
        <ele>103</ele>
        <time>2022-01-19T16:46:26Z</time>
      </trkpt>
      <trkpt lat="47.06533" lon="-0.94931">
        <ele>101</ele>
        <time>2022-01-19T16:47:11Z</time>
      </trkpt>
      <trkpt lat="47.0648" lon="-0.95096">
        <ele>99</ele>
        <time>2022-01-19T16:49:57Z</time>
      </trkpt>
      <trkpt lat="47.06468" lon="-0.95273">
        <ele>101</ele>
        <time>2022-01-19T16:52:38Z</time>
      </trkpt>
      <trkpt lat="47.06459" lon="-0.95288">
        <ele>100</ele>
        <time>2022-01-19T16:52:56Z</time>
      </trkpt>
      <trkpt lat="47.06374" lon="-0.95353">
        <ele>97</ele>
        <time>2022-01-19T16:55:04Z</time>
      </trkpt>
      <trkpt lat="47.06352" lon="-0.95441">
        <ele>96</ele>
        <time>2022-01-19T16:56:29Z</time>
      </trkpt>
      <trkpt lat="47.06315" lon="-0.95548">
        <ele>92</ele>
        <time>2022-01-19T16:58:19Z</time>
      </trkpt>
      <trkpt lat="47.0631" lon="-0.95548">
        <ele>91</ele>
        <time>2022-01-19T16:58:25Z</time>
      </trkpt>
      <trkpt lat="47.0629" lon="-0.95526">
        <ele>90</ele>
        <time>2022-01-19T16:58:59Z</time>
      </trkpt>
      <trkpt lat="47.06258" lon="-0.95504">
        <ele>86</ele>
        <time>2022-01-19T16:59:46Z</time>
      </trkpt>
      <trkpt lat="47.06246" lon="-0.95491">
        <ele>84</ele>
        <time>2022-01-19T17:00:06Z</time>
      </trkpt>
      <trkpt lat="47.06229" lon="-0.95484">
        <ele>81</ele>
        <time>2022-01-19T17:00:29Z</time>
      </trkpt>
      <trkpt lat="47.06207" lon="-0.95488">
        <ele>77</ele>
        <time>2022-01-19T17:00:59Z</time>
      </trkpt>
      <trkpt lat="47.06149" lon="-0.95451">
        <ele>66</ele>
        <time>2022-01-19T17:02:23Z</time>
      </trkpt>
      <trkpt lat="47.0614" lon="-0.95437">
        <ele>65</ele>
        <time>2022-01-19T17:02:41Z</time>
      </trkpt>
      <trkpt lat="47.06147" lon="-0.95401">
        <ele>64</ele>
        <time>2022-01-19T17:03:15Z</time>
      </trkpt>
      <trkpt lat="47.06181" lon="-0.95298">
        <ele>64</ele>
        <time>2022-01-19T17:04:59Z</time>
      </trkpt>
      <trkpt lat="47.06183" lon="-0.95272">
        <ele>64</ele>
        <time>2022-01-19T17:05:23Z</time>
      </trkpt>
      <trkpt lat="47.06199" lon="-0.95232">
        <ele>66</ele>
        <time>2022-01-19T17:06:05Z</time>
      </trkpt>
      <trkpt lat="47.06262" lon="-0.95103">
        <ele>69</ele>
        <time>2022-01-19T17:08:29Z</time>
      </trkpt>
      <trkpt lat="47.06308" lon="-0.95036">
        <ele>73</ele>
        <time>2022-01-19T17:09:55Z</time>
      </trkpt>
      <trkpt lat="47.06328" lon="-0.9498">
        <ele>71</ele>
        <time>2022-01-19T17:10:53Z</time>
      </trkpt>
      <trkpt lat="47.06346" lon="-0.94903">
        <ele>71</ele>
        <time>2022-01-19T17:12:07Z</time>
      </trkpt>
      <trkpt lat="47.06351" lon="-0.94863">
        <ele>72</ele>
        <time>2022-01-19T17:12:44Z</time>
      </trkpt>
      <trkpt lat="47.06346" lon="-0.94654">
        <ele>73</ele>
        <time>2022-01-19T17:15:54Z</time>
      </trkpt>
      <trkpt lat="47.06378" lon="-0.9465">
        <ele>79</ele>
        <time>2022-01-19T17:16:37Z</time>
      </trkpt>
      <trkpt lat="47.06396" lon="-0.94652">
        <ele>83</ele>
        <time>2022-01-19T17:17:01Z</time>
      </trkpt>
      <trkpt lat="47.06452" lon="-0.94667">
        <ele>92</ele>
        <time>2022-01-19T17:18:17Z</time>
      </trkpt>
      <trkpt lat="47.0648" lon="-0.946">
        <ele>93</ele>
        <time>2022-01-19T17:19:28Z</time>
      </trkpt>
      <trkpt lat="47.06515" lon="-0.94559">
        <ele>95</ele>
        <time>2022-01-19T17:20:28Z</time>
      </trkpt>
      <trkpt lat="47.06548" lon="-0.94541">
        <ele>97</ele>
        <time>2022-01-19T17:21:15Z</time>
      </trkpt>
      <trkpt lat="47.0656" lon="-0.94525">
        <ele>97</ele>
        <time>2022-01-19T17:21:37Z</time>
      </trkpt>
      <trkpt lat="47.06573" lon="-0.94525">
        <ele>98</ele>
        <time>2022-01-19T17:21:54Z</time>
      </trkpt>
      <trkpt lat="47.06603" lon="-0.94512">
        <ele>100</ele>
        <time>2022-01-19T17:22:36Z</time>
      </trkpt>
      <trkpt lat="47.06619" lon="-0.94495">
        <ele>101</ele>
        <time>2022-01-19T17:23:02Z</time>
      </trkpt>
      <trkpt lat="47.06626" lon="-0.94472">
        <ele>102</ele>
        <time>2022-01-19T17:23:25Z</time>
      </trkpt>
      <trkpt lat="47.06626" lon="-0.94421">
        <ele>103</ele>
        <time>2022-01-19T17:24:11Z</time>
      </trkpt>
      <trkpt lat="47.06642" lon="-0.94369">
        <ele>104</ele>
        <time>2022-01-19T17:25:03Z</time>
      </trkpt>
      <trkpt lat="47.06642" lon="-0.94326">
        <ele>105</ele>
        <time>2022-01-19T17:25:42Z</time>
      </trkpt>
      <trkpt lat="47.06653" lon="-0.94262">
        <ele>106</ele>
        <time>2022-01-19T17:26:42Z</time>
      </trkpt>
      <trkpt lat="47.06666" lon="-0.94249">
        <ele>107</ele>
        <time>2022-01-19T17:27:03Z</time>
      </trkpt>
      <trkpt lat="47.06708" lon="-0.94256">
        <ele>108</ele>
        <time>2022-01-19T17:28:00Z</time>
      </trkpt>
      <trkpt lat="47.06709" lon="-0.9423">
        <ele>109</ele>
        <time>2022-01-19T17:28:23Z</time>
      </trkpt>
      <trkpt lat="47.06721" lon="-0.94173">
        <ele>109</ele>
        <time>2022-01-19T17:29:18Z</time>
      </trkpt>
      <trkpt lat="47.06727" lon="-0.94163">
        <ele>109</ele>
        <time>2022-01-19T17:29:30Z</time>
      </trkpt>
      <trkpt lat="47.06747" lon="-0.9416">
        <ele>110</ele>
        <time>2022-01-19T17:29:57Z</time>
      </trkpt>
      <trkpt lat="47.06749" lon="-0.94118">
        <ele>111</ele>
        <time>2022-01-19T17:30:35Z</time>
      </trkpt>
      <trkpt lat="47.06761" lon="-0.94044">
        <ele>112</ele>
        <time>2022-01-19T17:31:44Z</time>
      </trkpt>
      <trkpt lat="47.06759" lon="-0.93991">
        <ele>112</ele>
        <time>2022-01-19T17:32:32Z</time>
      </trkpt>
      <trkpt lat="47.06765" lon="-0.93957">
        <ele>113</ele>
        <time>2022-01-19T17:33:04Z</time>
      </trkpt>
      <trkpt lat="47.06755" lon="-0.93957">
        <ele>113</ele>
        <time>2022-01-19T17:33:18Z</time>
      </trkpt>
      <trkpt lat="47.06751" lon="-0.93945">
        <ele>113</ele>
        <time>2022-01-19T17:33:30Z</time>
      </trkpt>
      <trkpt lat="47.06779" lon="-0.93917">
        <ele>114</ele>
        <time>2022-01-19T17:34:15Z</time>
      </trkpt>
      <trkpt lat="47.06833" lon="-0.93881">
        <ele>114</ele>
        <time>2022-01-19T17:35:34Z</time>
      </trkpt>
      <trkpt lat="47.06935" lon="-0.93804">
        <ele>117</ele>
        <time>2022-01-19T17:38:07Z</time>
      </trkpt>
      <trkpt lat="47.06944" lon="-0.93789">
        <ele>117</ele>
        <time>2022-01-19T17:38:25Z</time>
      </trkpt>
      <trkpt lat="47.06963" lon="-0.9377">
        <ele>117</ele>
        <time>2022-01-19T17:38:56Z</time>
      </trkpt>
      <trkpt lat="47.0696" lon="-0.93747">
        <ele>116</ele>
        <time>2022-01-19T17:39:17Z</time>
      </trkpt>
      <trkpt lat="47.06976" lon="-0.93742">
        <ele>117</ele>
        <time>2022-01-19T17:39:39Z</time>
      </trkpt>
      <trkpt lat="47.06991" lon="-0.93724">
        <ele>116</ele>
        <time>2022-01-19T17:40:05Z</time>
      </trkpt>
      <trkpt lat="47.07025" lon="-0.93703">
        <ele>116</ele>
        <time>2022-01-19T17:40:54Z</time>
      </trkpt>
      <trkpt lat="47.0703" lon="-0.93688">
        <ele>116</ele>
        <time>2022-01-19T17:41:09Z</time>
      </trkpt>
      <trkpt lat="47.07003" lon="-0.93625">
        <ele>114</ele>
        <time>2022-01-19T17:42:17Z</time>
      </trkpt>
      <trkpt lat="47.0698" lon="-0.93585">
        <ele>113</ele>
        <time>2022-01-19T17:43:05Z</time>
      </trkpt>
      <trkpt lat="47.06971" lon="-0.93577">
        <ele>113</ele>
        <time>2022-01-19T17:43:19Z</time>
      </trkpt>
      <trkpt lat="47.06968" lon="-0.93564">
        <ele>112</ele>
        <time>2022-01-19T17:43:31Z</time>
      </trkpt>
      <trkpt lat="47.0696" lon="-0.93557">
        <ele>112</ele>
        <time>2022-01-19T17:43:44Z</time>
      </trkpt>
      <trkpt lat="47.0693" lon="-0.93502">
        <ele>111</ele>
        <time>2022-01-19T17:44:48Z</time>
      </trkpt>
      <trkpt lat="47.06908" lon="-0.93475">
        <ele>110</ele>
        <time>2022-01-19T17:45:26Z</time>
      </trkpt>
      <trkpt lat="47.06904" lon="-0.93462">
        <ele>110</ele>
        <time>2022-01-19T17:45:39Z</time>
      </trkpt>
      <trkpt lat="47.06845" lon="-0.93373">
        <ele>108</ele>
        <time>2022-01-19T17:47:32Z</time>
      </trkpt>
      <trkpt lat="47.06638" lon="-0.93114">
        <ele>102</ele>
        <time>2022-01-19T17:53:35Z</time>
      </trkpt>
      <trkpt lat="47.06599" lon="-0.9306">
        <ele>100</ele>
        <time>2022-01-19T17:54:46Z</time>
      </trkpt>
      <trkpt lat="47.06579" lon="-0.9302">
        <ele>97</ele>
        <time>2022-01-19T17:55:31Z</time>
      </trkpt>
      <trkpt lat="47.06564" lon="-0.93007">
        <ele>96</ele>
        <time>2022-01-19T17:55:54Z</time>
      </trkpt>
      <trkpt lat="47.06537" lon="-0.92967">
        <ele>95</ele>
        <time>2022-01-19T17:56:46Z</time>
      </trkpt>
      <trkpt lat="47.06495" lon="-0.92935">
        <ele>93</ele>
        <time>2022-01-19T17:57:49Z</time>
      </trkpt>
      <trkpt lat="47.06467" lon="-0.92907">
        <ele>93</ele>
        <time>2022-01-19T17:58:34Z</time>
      </trkpt>
      <trkpt lat="47.06441" lon="-0.92871">
        <ele>93</ele>
        <time>2022-01-19T17:59:22Z</time>
      </trkpt>
      <trkpt lat="47.06359" lon="-0.92787">
        <ele>88</ele>
        <time>2022-01-19T18:01:35Z</time>
      </trkpt>
      <trkpt lat="47.06355" lon="-0.9279">
        <ele>88</ele>
        <time>2022-01-19T18:01:41Z</time>
      </trkpt>
      <trkpt lat="47.06352" lon="-0.92809">
        <ele>88</ele>
        <time>2022-01-19T18:01:59Z</time>
      </trkpt>
      <trkpt lat="47.0635" lon="-0.92872">
        <ele>88</ele>
        <time>2022-01-19T18:02:56Z</time>
      </trkpt>
      <trkpt lat="47.06356" lon="-0.93063">
        <ele>87</ele>
        <time>2022-01-19T18:05:50Z</time>
      </trkpt>
      <trkpt lat="47.06352" lon="-0.93137">
        <ele>86</ele>
        <time>2022-01-19T18:06:58Z</time>
      </trkpt>
      <trkpt lat="47.06363" lon="-0.93218">
        <ele>87</ele>
        <time>2022-01-19T18:08:13Z</time>
      </trkpt>
      <trkpt lat="47.06388" lon="-0.93293">
        <ele>90</ele>
        <time>2022-01-19T18:09:28Z</time>
      </trkpt>
      <trkpt lat="47.06396" lon="-0.93335">
        <ele>91</ele>
        <time>2022-01-19T18:10:08Z</time>
      </trkpt>
      <trkpt lat="47.06398" lon="-0.93401">
        <ele>92</ele>
        <time>2022-01-19T18:11:08Z</time>
      </trkpt>
      <trkpt lat="47.06392" lon="-0.93437">
        <ele>91</ele>
        <time>2022-01-19T18:11:42Z</time>
      </trkpt>
      <trkpt lat="47.06382" lon="-0.9357">
        <ele>91</ele>
        <time>2022-01-19T18:13:44Z</time>
      </trkpt>
      <trkpt lat="47.06394" lon="-0.93672">
        <ele>91</ele>
        <time>2022-01-19T18:15:18Z</time>
      </trkpt>
      <trkpt lat="47.06395" lon="-0.93716">
        <ele>89</ele>
        <time>2022-01-19T18:15:58Z</time>
      </trkpt>
      <trkpt lat="47.06393" lon="-0.93725">
        <ele>89</ele>
        <time>2022-01-19T18:16:06Z</time>
      </trkpt>
      <trkpt lat="47.06385" lon="-0.93734">
        <ele>88</ele>
        <time>2022-01-19T18:16:20Z</time>
      </trkpt>
      <trkpt lat="47.06364" lon="-0.9375">
        <ele>86</ele>
        <time>2022-01-19T18:16:51Z</time>
      </trkpt>
      <trkpt lat="47.06318" lon="-0.93766">
        <ele>82</ele>
        <time>2022-01-19T18:17:54Z</time>
      </trkpt>
      <trkpt lat="47.0629" lon="-0.93788">
        <ele>78</ele>
        <time>2022-01-19T18:18:37Z</time>
      </trkpt>
      <trkpt lat="47.06287" lon="-0.93796">
        <ele>78</ele>
        <time>2022-01-19T18:18:45Z</time>
      </trkpt>
      <trkpt lat="47.0629" lon="-0.93847">
        <ele>76</ele>
        <time>2022-01-19T18:19:32Z</time>
      </trkpt>
      <trkpt lat="47.06279" lon="-0.93865">
        <ele>76</ele>
        <time>2022-01-19T18:19:54Z</time>
      </trkpt>
      <trkpt lat="47.06276" lon="-0.93921">
        <ele>76</ele>
        <time>2022-01-19T18:20:45Z</time>
      </trkpt>
      <trkpt lat="47.06271" lon="-0.93932">
        <ele>75</ele>
        <time>2022-01-19T18:20:57Z</time>
      </trkpt>
      <trkpt lat="47.06259" lon="-0.93937">
        <ele>75</ele>
        <time>2022-01-19T18:21:13Z</time>
      </trkpt>
    </trkseg>
  </trk>
</gpx>